Time;durP1;ratioP1;P1;durP2;ratioP2;P2;SDS_P1;SDS_P2;PMS_P1;PMS_P2;Temp;Humidity;BMP_temperature;BMP_pressure;BME280_temperature;BME280_humidity;BME280_pressure;Samples;Min_cycle;Max_cycle;Signal;HPM_P1;HPM_P2
2023/03/22 00:01:36;;;;;;;24.42;21.45;;;7.90;99.90;;;;;;5015260;28;20168;-73
2023/03/22 00:04:03;;;;;;;23.23;19.13;;;7.90;99.90;;;;;;5028613;28;20060;-73
2023/03/22 00:06:30;;;;;;;25.25;19.77;;;8.00;99.90;;;;;;5016199;28;20052;-72
2023/03/22 00:08:56;;;;;;;24.80;18.00;;;8.00;99.90;;;;;;5007273;28;20511;-73
2023/03/22 00:11:24;;;;;;;20.67;18.55;;;8.10;99.90;;;;;;5007508;28;20041;-72
2023/03/22 00:13:52;;;;;;;29.00;21.70;;;8.10;99.90;;;;;;5014797;28;20145;-73
2023/03/22 00:16:20;;;;;;;44.47;31.30;;;8.20;99.90;;;;;;5009217;28;20041;-73
2023/03/22 00:18:46;;;;;;;37.75;27.27;;;8.30;99.90;;;;;;5017001;28;20049;-73
2023/03/22 00:21:15;;;;;;;24.25;21.25;;;8.40;99.90;;;;;;5002799;28;20049;-72
2023/03/22 00:23:42;;;;;;;20.45;18.45;;;8.60;99.90;;;;;;5014045;28;20042;-73
2023/03/22 00:26:10;;;;;;;19.90;17.73;;;8.70;99.90;;;;;;4996487;28;20042;-72
2023/03/22 00:28:37;;;;;;;19.67;17.80;;;8.70;99.90;;;;;;5011659;28;20037;-73
2023/03/22 00:31:05;;;;;;;23.48;20.98;;;8.80;99.90;;;;;;4998538;28;20112;-73
2023/03/22 00:33:34;;;;;;;24.35;21.10;;;8.90;99.90;;;;;;5026995;28;20042;-73
2023/03/22 00:36:04;;;;;;;20.80;18.77;;;9.00;99.90;;;;;;5003037;28;20057;-72
2023/03/22 00:38:37;;;;;;;22.98;20.77;;;9.00;99.90;;;;;;5010638;28;20484;-70
2023/03/22 00:41:15;;;;;;;21.17;19.08;;;9.00;99.90;;;;;;5027329;28;20221;-73
2023/03/22 00:43:44;;;;;;;25.17;19.83;;;9.10;99.90;;;;;;5030658;28;20046;-73
2023/03/22 00:46:12;;;;;;;21.80;19.80;;;9.10;99.90;;;;;;5010246;28;20647;-73
2023/03/22 00:48:39;;;;;;;24.13;21.63;;;9.10;99.90;;;;;;5016692;28;20125;-71
2023/03/22 00:51:07;;;;;;;24.00;21.48;;;9.20;99.90;;;;;;5026970;28;20072;-71
2023/03/22 00:53:35;;;;;;;22.92;20.38;;;9.20;99.90;;;;;;5030987;28;20111;-71
2023/03/22 00:56:03;;;;;;;23.25;20.80;;;9.20;99.90;;;;;;5026213;28;20037;-71
2023/03/22 00:58:38;;;;;;;22.90;20.55;;;9.20;99.90;;;;;;5027084;28;20045;-71
2023/03/22 01:01:06;;;;;;;22.40;20.25;;;9.20;99.90;;;;;;5026327;28;20045;-71
2023/03/22 01:03:33;;;;;;;27.70;22.17;;;9.20;99.90;;;;;;5015441;28;20095;-71
2023/03/22 01:06:00;;;;;;;23.38;21.08;;;9.20;99.90;;;;;;5010865;28;20120;-70
2023/03/22 01:08:32;;;;;;;29.75;23.33;;;9.30;99.90;;;;;;5025799;28;20423;-70
2023/03/22 01:11:00;;;;;;;36.55;27.25;;;9.30;99.90;;;;;;5004944;28;20093;-71
2023/03/22 01:13:27;;;;;;;26.65;21.33;;;9.30;99.90;;;;;;5024243;28;20049;-71
2023/03/22 01:15:54;;;;;;;22.70;20.40;;;9.30;99.90;;;;;;5029185;28;20041;-71
2023/03/22 01:18:21;;;;;;;22.27;19.98;;;9.40;99.90;;;;;;5023037;28;20241;-71
2023/03/22 01:20:48;;;;;;;23.98;21.40;;;9.50;99.90;;;;;;5015786;28;20060;-71
2023/03/22 01:23:15;;;;;;;23.33;21.15;;;9.50;99.90;;;;;;5010483;28;20041;-71
2023/03/22 01:25:42;;;;;;;23.90;21.40;;;9.50;99.90;;;;;;5030663;28;20061;-71
2023/03/22 01:28:09;;;;;;;24.27;21.90;;;9.50;99.90;;;;;;5027874;28;20107;-71
2023/03/22 01:30:39;;;;;;;22.98;20.63;;;9.40;99.90;;;;;;5029809;28;20045;-71
2023/03/22 01:33:06;;;;;;;23.13;20.83;;;9.40;99.90;;;;;;5027149;28;20516;-71
2023/03/22 01:35:34;;;;;;;24.13;21.75;;;9.40;99.90;;;;;;5032859;28;20057;-71
2023/03/22 01:38:02;;;;;;;23.38;21.00;;;9.40;99.90;;;;;;5030644;28;20333;-71
2023/03/22 01:40:29;;;;;;;22.30;19.92;;;9.40;99.90;;;;;;5027118;28;20061;-71
2023/03/22 01:42:56;;;;;;;23.38;21.00;;;9.40;99.90;;;;;;5032435;28;20256;-70
2023/03/22 01:45:26;;;;;;;24.55;21.70;;;9.30;99.90;;;;;;5013589;28;20099;-74
2023/03/22 01:47:57;;;;;;;25.27;22.63;;;9.30;99.90;;;;;;5017733;28;20046;-72
2023/03/22 01:50:25;;;;;;;26.08;23.30;;;9.30;99.90;;;;;;5017653;28;20045;-72
2023/03/22 01:52:54;;;;;;;24.95;21.77;;;9.30;99.90;;;;;;5033061;28;20063;-73
2023/03/22 01:55:26;;;;;;;23.73;21.42;;;9.30;99.90;;;;;;5025982;28;20432;-71
2023/03/22 01:58:07;;;;;;;23.85;20.67;;;9.30;99.90;;;;;;5014593;28;20254;-73
2023/03/22 02:00:46;;;;;;;24.92;22.27;;;9.30;99.90;;;;;;5030117;28;20049;-73
2023/03/22 02:03:34;;;;;;;22.70;20.42;;;9.30;99.90;;;;;;5032681;28;20041;-72
2023/03/22 02:06:01;;;;;;;23.63;21.10;;;9.30;99.90;;;;;;5012355;28;20133;-71
2023/03/22 02:08:29;;;;;;;23.38;20.88;;;9.30;99.90;;;;;;5033179;28;20130;-73
2023/03/22 02:11:02;;;;;;;23.02;20.60;;;9.30;99.90;;;;;;5021885;28;20496;-72
2023/03/22 02:13:56;;;;;;;23.45;20.98;;;9.40;99.90;;;;;;5011277;28;20037;-72
2023/03/22 02:17:11;;;;;;;24.67;22.27;;;9.40;99.90;;;;;;4971486;28;20627;-72
2023/03/22 02:20:20;;;;;;;24.77;22.40;;;9.50;99.90;;;;;;4967052;28;20133;-72
2023/03/22 02:22:58;;;;;;;25.05;22.58;;;9.50;99.90;;;;;;4993608;28;20129;-72
2023/03/22 02:25:46;;;;;;;26.15;21.80;;;9.50;99.90;;;;;;5009484;28;20049;-72
2023/03/22 02:28:17;;;;;;;23.02;20.90;;;9.50;99.90;;;;;;5030363;28;20451;-72
2023/03/22 02:30:54;;;;;;;25.00;21.77;;;9.50;99.90;;;;;;5017395;28;20136;-72
2023/03/22 02:33:40;;;;;;;24.20;21.67;;;9.50;99.90;;;;;;5015023;28;20104;-71
2023/03/22 02:36:10;;;;;;;24.23;21.98;;;9.50;99.90;;;;;;5028474;28;20054;-72
2023/03/22 02:38:56;;;;;;;25.15;22.55;;;9.50;99.90;;;;;;5033591;28;20096;-72
2023/03/22 02:41:46;;;;;;;23.60;21.30;;;9.50;99.90;;;;;;5029804;28;20040;-73
2023/03/22 02:44:21;;;;;;;24.70;22.08;;;9.50;99.90;;;;;;5029314;28;20107;-73
2023/03/22 02:47:02;;;;;;;24.05;21.65;;;9.50;99.90;;;;;;5032290;28;20038;-71
2023/03/22 02:49:36;;;;;;;24.33;21.23;;;9.50;99.90;;;;;;5026698;28;20080;-71
2023/03/22 02:52:24;;;;;;;24.58;22.17;;;9.50;99.90;;;;;;5013125;28;20044;-72
2023/03/22 02:55:04;;;;;;;23.75;21.50;;;9.60;99.90;;;;;;5017562;28;20081;-73
2023/03/22 02:57:46;;;;;;;25.48;22.55;;;9.60;99.90;;;;;;5010653;28;20045;-71
2023/03/22 03:00:14;;;;;;;25.45;21.88;;;9.60;99.90;;;;;;5014482;28;20051;-72
2023/03/22 03:02:47;;;;;;;23.63;21.45;;;9.60;99.90;;;;;;5031187;28;20045;-71
2023/03/22 03:05:16;;;;;;;23.73;21.42;;;9.60;99.90;;;;;;5029620;28;20042;-72
2023/03/22 03:07:47;;;;;;;24.77;22.38;;;9.60;99.90;;;;;;5017566;28;20041;-71
2023/03/22 03:10:16;;;;;;;24.17;21.63;;;9.50;99.90;;;;;;5013210;28;20049;-71
2023/03/22 03:12:43;;;;;;;25.00;22.40;;;9.50;99.90;;;;;;5032328;28;20042;-71
2023/03/22 03:15:15;;;;;;;24.67;22.35;;;9.50;99.90;;;;;;5012816;28;20049;-70
2023/03/22 03:18:12;;;;;;;24.13;22.02;;;9.50;99.90;;;;;;5017782;28;20496;-71
2023/03/22 03:20:53;;;;;;;25.48;23.15;;;9.50;99.90;;;;;;5027092;28;20046;-72
2023/03/22 03:23:48;;;;;;;25.13;22.73;;;9.60;99.90;;;;;;5022431;28;20408;-72
2023/03/22 03:26:34;;;;;;;;;;;9.60;99.90;;;;;;5012986;28;20049;-72
2023/03/22 03:29:30;;;;;;;24.38;21.45;;;9.50;99.90;;;;;;5013354;28;19921;-72
2023/03/22 03:32:20;;;;;;;23.88;21.70;;;9.50;99.90;;;;;;5010910;28;20123;-72
2023/03/22 03:34:51;;;;;;;23.73;21.23;;;9.50;99.90;;;;;;5005810;28;20048;-71
2023/03/22 03:37:22;;;;;;;22.90;20.45;;;9.40;99.90;;;;;;5028628;28;20517;-72
2023/03/22 03:39:57;;;;;;;24.23;21.90;;;9.40;99.90;;;;;;5011593;28;20048;-72
2023/03/22 03:42:27;;;;;;;24.70;22.30;;;9.30;99.90;;;;;;5015693;28;20045;-71
2023/03/22 03:44:54;;;;;;;22.90;20.75;;;9.30;99.90;;;;;;5015233;28;20353;-72
2023/03/22 03:47:22;;;;;;;33.97;22.92;;;9.30;99.90;;;;;;5029826;28;20043;-72
2023/03/22 03:49:49;;;;;;;23.50;21.10;;;9.30;99.90;;;;;;5023234;28;20058;-72
2023/03/22 03:52:16;;;;;;;26.13;20.70;;;9.30;99.90;;;;;;5013375;28;20037;-72
2023/03/22 03:54:44;;;;;;;23.67;20.77;;;9.30;99.90;;;;;;5031596;28;20037;-72
2023/03/22 03:57:15;;;;;;;23.42;21.23;;;9.20;99.90;;;;;;5027316;28;20041;-72
2023/03/22 03:59:42;;;;;;;24.75;22.35;;;9.20;99.90;;;;;;5015128;28;20311;-72
2023/03/22 04:02:17;;;;;;;24.85;22.27;;;9.10;99.90;;;;;;5028649;28;20060;-72
2023/03/22 04:04:45;;;;;;;24.33;22.02;;;9.10;99.90;;;;;;5031790;28;20095;-72
2023/03/22 04:07:12;;;;;;;23.98;21.52;;;9.10;99.90;;;;;;5010281;28;20128;-71
2023/03/22 04:09:39;;;;;;;24.90;21.00;;;9.10;99.90;;;;;;5031404;28;20526;-71
2023/03/22 04:12:25;;;;;;;26.48;23.05;;;9.00;99.90;;;;;;5031259;28;20041;-72
2023/03/22 04:15:11;;;;;;;23.85;21.15;;;9.00;99.90;;;;;;5027345;28;20567;-71
2023/03/22 04:17:39;;;;;;;24.23;21.65;;;8.90;99.90;;;;;;5031203;28;20606;-73
2023/03/22 04:20:09;;;;;;;26.52;21.35;;;8.80;99.90;;;;;;5008687;28;20041;-73
2023/03/22 04:22:37;;;;;;;30.52;23.52;;;8.80;99.90;;;;;;5026465;28;20104;-73
2023/03/22 04:25:11;;;;;;;26.00;23.20;;;8.70;99.90;;;;;;5027334;28;20458;-73
2023/03/22 04:27:46;;;;;;;28.85;23.33;;;8.60;99.90;;;;;;5022477;28;20058;-73
2023/03/22 04:30:21;;;;;;;28.40;22.40;;;8.50;99.90;;;;;;5010453;28;20034;-73
2023/03/22 04:33:18;;;;;;;26.48;21.85;;;8.40;99.90;;;;;;5024380;28;20881;-73
2023/03/22 04:36:09;;;;;;;29.50;22.42;;;8.20;99.90;;;;;;5013528;28;20103;-72
2023/03/22 04:38:46;;;;;;;27.83;20.83;;;8.10;99.90;;;;;;5024203;28;20508;-72
2023/03/22 04:41:18;;;;;;;29.00;21.77;;;8.10;99.90;;;;;;5028095;28;20041;-73
2023/03/22 04:43:49;;;;;;;29.60;22.42;;;8.00;99.90;;;;;;5014922;28;20056;-73
2023/03/22 04:46:17;;;;;;;28.95;20.65;;;8.00;99.90;;;;;;5017461;28;21353;-72
2023/03/22 04:48:50;;;;;;;29.00;21.80;;;8.00;99.90;;;;;;5031070;28;20303;-73
2023/03/22 04:51:17;;;;;;;36.88;22.33;;;7.90;99.90;;;;;;5021007;28;20057;-73
2023/03/22 04:53:59;;;;;;;33.47;22.90;;;7.90;99.90;;;;;;5012042;28;20107;-73
2023/03/22 04:56:26;;;;;;;29.20;21.67;;;7.90;99.90;;;;;;5030574;28;20079;-73
2023/03/22 04:58:53;;;;;;;31.83;23.48;;;7.90;99.90;;;;;;5012519;28;20054;-73
2023/03/22 05:01:20;;;;;;;33.08;22.13;;;7.90;99.90;;;;;;5028782;28;20056;-72
2023/03/22 05:03:55;;;;;;;;;;;7.90;99.90;;;;;;5030607;28;20545;-73
2023/03/22 05:06:22;;;;;;;30.75;22.83;;;7.80;99.90;;;;;;5030047;28;20015;-73
2023/03/22 05:09:02;;;;;;;33.78;23.88;;;7.80;99.90;;;;;;5025941;28;20322;-73
2023/03/22 05:11:29;;;;;;;33.88;23.77;;;7.80;99.90;;;;;;5033666;28;20073;-73
2023/03/22 05:14:09;;;;;;;34.83;23.08;;;7.80;99.90;;;;;;5030562;28;20553;-73
2023/03/22 05:16:39;;;;;;;34.58;22.48;;;7.70;99.90;;;;;;5035011;28;20045;-73
2023/03/22 05:19:12;;;;;;;30.08;22.13;;;7.70;99.90;;;;;;5024837;28;20056;-73
2023/03/22 05:21:43;;;;;;;33.83;22.90;;;7.70;99.90;;;;;;5034113;28;20044;-72
2023/03/22 05:24:10;;;;;;;30.35;22.30;;;7.60;99.90;;;;;;5013436;28;20084;-73
2023/03/22 05:26:41;;;;;;;36.92;23.30;;;7.60;99.90;;;;;;5016102;28;20041;-73
2023/03/22 05:29:10;;;;;;;28.90;21.58;;;7.50;99.90;;;;;;5027843;28;20697;-73
2023/03/22 05:31:55;;;;;;;33.85;23.13;;;7.50;99.90;;;;;;5013138;28;20052;-73
2023/03/22 05:34:22;;;;;;;36.60;22.45;;;7.50;99.90;;;;;;5031739;28;20053;-73
2023/03/22 05:36:50;;;;;;;32.58;21.13;;;7.50;99.90;;;;;;5033158;28;20056;-73
2023/03/22 05:39:25;;;;;;;32.25;22.58;;;7.50;99.90;;;;;;5029718;28;20053;-73
2023/03/22 05:41:52;;;;;;;34.30;23.63;;;7.50;99.90;;;;;;5031239;28;20430;-73
2023/03/22 05:44:19;;;;;;;36.08;23.67;;;7.50;99.90;;;;;;5012871;28;20047;-73
2023/03/22 05:47:00;;;;;;;32.10;23.15;;;7.60;99.90;;;;;;5013724;28;20049;-73
2023/03/22 05:49:51;;;;;;;32.65;23.45;;;7.60;99.90;;;;;;5030522;28;20125;-73
2023/03/22 05:52:21;;;;;;;31.70;23.75;;;7.60;99.90;;;;;;5030163;28;20033;-73
2023/03/22 05:55:18;;;;;;;36.90;24.15;;;7.70;99.90;;;;;;5012191;28;20516;-73
2023/03/22 05:57:50;;;;;;;31.17;23.92;;;7.70;99.90;;;;;;5033435;28;20157;-74
2023/03/22 06:00:17;;;;;;;31.20;23.25;;;7.70;99.90;;;;;;5025494;28;20510;-71
2023/03/22 06:03:04;;;;;;;36.65;24.92;;;7.70;99.90;;;;;;5013759;28;20486;-73
2023/03/22 06:05:37;;;;;;;31.95;23.13;;;7.60;99.90;;;;;;5027151;28;20049;-73
2023/03/22 06:08:04;;;;;;;30.90;22.23;;;7.60;99.90;;;;;;5030097;28;20132;-73
2023/03/22 06:10:31;;;;;;;27.50;21.92;;;7.50;99.90;;;;;;5028621;28;20094;-73
2023/03/22 06:12:57;;;;;;;35.03;21.95;;;7.50;99.90;;;;;;5008317;28;20047;-72
2023/03/22 06:15:28;;;;;;;32.65;22.92;;;7.50;99.90;;;;;;5015459;28;20050;-72
2023/03/22 06:18:06;;;;;;;32.72;21.38;;;7.50;99.90;;;;;;5022680;28;20049;-72
2023/03/22 06:20:38;;;;;;;30.20;20.48;;;7.60;99.90;;;;;;5030143;28;20455;-72
2023/03/22 06:23:12;;;;;;;34.33;22.92;;;7.50;99.90;;;;;;5012084;28;20127;-72
2023/03/22 06:25:40;;;;;;;33.30;21.75;;;7.50;99.90;;;;;;5032295;28;20243;-72
2023/03/22 06:28:06;;;;;;;30.77;22.42;;;7.60;99.90;;;;;;5015254;28;20072;-72
2023/03/22 06:30:36;;;;;;;28.40;20.60;;;7.60;99.90;;;;;;5032125;28;20068;-72
2023/03/22 06:33:21;;;;;;;26.25;20.27;;;7.60;99.90;;;;;;5028703;28;20474;-72
2023/03/22 06:35:53;;;;;;;29.58;19.85;;;7.60;99.90;;;;;;5030592;28;20049;-72
2023/03/22 06:38:28;;;;;;;27.60;20.27;;;7.70;99.90;;;;;;5025666;28;20041;-71
2023/03/22 06:40:56;;;;;;;30.27;19.92;;;7.70;99.90;;;;;;5014980;28;20372;-72
2023/03/22 06:43:23;;;;;;;29.20;20.20;;;7.80;99.90;;;;;;5030550;28;20140;-72
2023/03/22 06:45:56;;;;;;;29.23;20.25;;;7.90;99.90;;;;;;5029678;28;20045;-71
2023/03/22 06:48:28;;;;;;;26.48;19.65;;;8.00;99.90;;;;;;5031115;28;20103;-72
2023/03/22 06:51:03;;;;;;;29.95;20.17;;;8.10;99.90;;;;;;5011505;28;20046;-72
2023/03/22 06:53:33;;;;;;;23.88;19.25;;;8.20;99.90;;;;;;5029213;28;20207;-70
2023/03/22 06:56:01;;;;;;;24.40;20.42;;;8.30;99.90;;;;;;5012594;28;20045;-72
2023/03/22 06:58:32;;;;;;;24.50;21.50;;;8.40;99.90;;;;;;5027637;28;20283;-74
2023/03/22 07:00:58;;;;;;;24.40;20.90;;;8.50;99.90;;;;;;5022866;28;20547;-73
2023/03/22 07:03:26;;;;;;;24.98;21.77;;;8.60;99.90;;;;;;5023041;28;20722;-73
2023/03/22 07:06:02;;;;;;;26.92;22.42;;;8.80;99.90;;;;;;5027212;28;20119;-73
2023/03/22 07:08:31;;;;;;;24.95;19.65;;;9.00;99.90;;;;;;5023360;28;20294;-73
2023/03/22 07:10:58;;;;;;;22.85;20.52;;;9.20;99.90;;;;;;5010259;28;20131;-73
2023/03/22 07:13:26;;;;;;;24.17;21.85;;;9.60;99.90;;;;;;5027548;28;20041;-73
2023/03/22 07:15:59;;;;;;;27.55;24.08;;;9.80;99.90;;;;;;5027626;28;20498;-73
2023/03/22 07:18:36;;;;;;;26.02;23.25;;;9.90;99.90;;;;;;5029899;28;20061;-73
2023/03/22 07:21:03;;;;;;;28.45;25.73;;;10.10;99.90;;;;;;5026712;28;20120;-73
2023/03/22 07:23:31;;;;;;;28.58;26.33;;;10.20;99.90;;;;;;5026374;28;20559;-70
2023/03/22 07:26:04;;;;;;;29.75;26.90;;;10.20;99.90;;;;;;5023609;28;20466;-71
2023/03/22 07:28:33;;;;;;;28.23;25.70;;;10.20;99.90;;;;;;5022226;28;20041;-72
2023/03/22 07:31:04;;;;;;;27.33;25.02;;;10.40;99.90;;;;;;5025697;28;20041;-71
2023/03/22 07:33:41;;;;;;;27.33;24.73;;;10.30;99.90;;;;;;5030149;28;20056;-71
2023/03/22 07:36:09;;;;;;;29.60;26.77;;;10.30;99.90;;;;;;5026465;28;20069;-71
2023/03/22 07:38:36;;;;;;;26.98;24.88;;;10.30;99.90;;;;;;5026536;28;20535;-72
2023/03/22 07:41:07;;;;;;;28.55;25.63;;;10.40;99.90;;;;;;5026059;28;20045;-73
2023/03/22 07:43:50;;;;;;;27.02;24.63;;;10.40;99.90;;;;;;5028034;28;20056;-73
2023/03/22 07:46:24;;;;;;;29.15;26.50;;;10.50;99.90;;;;;;5028738;28;20508;-74
2023/03/22 07:49:13;;;;;;;27.90;25.80;;;10.60;99.90;;;;;;5020460;28;20127;-73
2023/03/22 07:52:09;;;;;;;29.60;26.98;;;10.70;99.90;;;;;;5001849;28;20447;-71
2023/03/22 07:54:36;;;;;;;26.40;24.08;;;10.90;99.90;;;;;;5019324;28;20507;-71
2023/03/22 07:57:05;;;;;;;25.63;23.48;;;11.00;99.90;;;;;;5022557;28;20089;-71
2023/03/22 07:59:35;;;;;;;28.67;25.27;;;11.10;99.90;;;;;;5008943;28;20045;-71
2023/03/22 08:02:07;;;;;;;27.65;25.05;;;11.10;99.90;;;;;;5024737;28;20361;-71
2023/03/22 08:04:39;;;;;;;26.42;24.42;;;11.30;99.90;;;;;;5024718;28;20411;-71
2023/03/22 08:07:12;;;;;;;28.50;25.67;;;11.30;99.90;;;;;;5027657;28;20449;-72
2023/03/22 08:09:40;;;;;;;26.30;24.23;;;11.20;99.90;;;;;;5013396;28;20139;-71
2023/03/22 08:12:06;;;;;;;27.15;24.73;;;11.20;99.90;;;;;;5027468;28;20443;-71
2023/03/22 08:14:35;;;;;;;27.63;25.42;;;11.20;99.90;;;;;;5023974;28;20037;-71
2023/03/22 08:17:07;;;;;;;27.30;24.65;;;11.20;99.90;;;;;;5025795;28;20048;-71
2023/03/22 08:19:34;;;;;;;26.23;24.10;;;11.10;99.90;;;;;;5023899;28;20049;-73
2023/03/22 08:22:01;;;;;;;30.48;25.33;;;11.10;99.90;;;;;;5021632;28;20427;-72
2023/03/22 08:24:46;;;;;;;27.15;24.45;;;11.00;99.90;;;;;;5014293;28;20099;-71
2023/03/22 08:27:23;;;;;;;27.17;24.90;;;11.00;99.90;;;;;;5006842;28;20037;-71
2023/03/22 08:29:50;;;;;;;25.55;23.35;;;11.10;99.90;;;;;;5027910;28;20300;-71
2023/03/22 08:32:17;;;;;;;26.30;24.23;;;11.10;99.90;;;;;;5019174;28;20315;-72
2023/03/22 08:34:44;;;;;;;26.67;24.50;;;11.10;99.90;;;;;;5027904;28;20045;-71
2023/03/22 08:37:11;;;;;;;27.25;24.92;;;11.20;99.90;;;;;;5010943;28;20072;-71
2023/03/22 08:39:39;;;;;;;28.05;25.60;;;11.20;99.90;;;;;;5027823;28;20049;-74
2023/03/22 08:42:20;;;;;;;26.75;24.48;;;11.20;99.90;;;;;;5006936;28;21318;-71
2023/03/22 08:44:48;;;;;;;27.48;25.17;;;11.20;99.90;;;;;;5014152;28;20136;-72
2023/03/22 08:47:14;;;;;;;27.95;25.95;;;11.20;99.90;;;;;;5024774;28;20042;-71
2023/03/22 08:49:42;;;;;;;33.75;30.55;;;11.30;99.90;;;;;;5025983;28;20053;-72
2023/03/22 08:52:20;;;;;;;33.85;31.13;;;11.40;99.90;;;;;;5023573;28;20604;-71
2023/03/22 08:55:00;;;;;;;33.30;30.67;;;11.40;99.90;;;;;;5022235;28;20046;-71
2023/03/22 08:57:49;;;;;;;29.98;27.58;;;11.40;99.90;;;;;;5012992;28;20088;-72
2023/03/22 09:00:38;;;;;;;31.45;28.77;;;11.50;99.90;;;;;;4999735;28;20092;-72
2023/03/22 09:03:23;;;;;;;27.17;25.15;;;11.50;99.90;;;;;;5026296;28;20055;-72
2023/03/22 09:05:50;;;;;;;26.70;24.63;;;11.50;99.90;;;;;;5006003;28;20488;-72
2023/03/22 09:08:17;;;;;;;27.25;25.02;;;11.50;99.90;;;;;;5020270;28;21301;-71
2023/03/22 09:10:50;;;;;;;27.42;25.15;;;11.70;99.90;;;;;;5006142;28;20092;-72
2023/03/22 09:13:20;;;;;;;27.50;25.13;;;11.90;99.90;;;;;;5026361;28;20144;-71
2023/03/22 09:15:55;;;;;;;26.73;24.67;;;12.10;99.90;;;;;;5011960;28;20048;-70
2023/03/22 09:18:25;;;;;;;29.13;26.83;;;12.10;99.90;;;;;;5027486;28;20103;-71
2023/03/22 09:20:54;;;;;;;27.63;25.83;;;12.40;99.90;;;;;;5025624;28;20296;-71
2023/03/22 09:23:26;;;;;;;27.63;25.73;;;12.40;99.90;;;;;;5027440;28;20045;-70
2023/03/22 09:25:53;;;;;;;28.70;26.40;;;12.30;99.90;;;;;;5012613;28;20045;-70
2023/03/22 09:28:23;;;;;;;27.05;24.67;;;12.30;99.90;;;;;;5016290;28;20075;-71
2023/03/22 09:30:51;;;;;;;28.48;26.27;;;12.30;99.90;;;;;;5028711;28;20045;-73
2023/03/22 09:33:18;;;;;;;28.70;26.48;;;12.30;99.90;;;;;;5022895;28;20060;-73
2023/03/22 09:35:49;;;;;;;28.25;26.15;;;12.40;99.90;;;;;;5028378;28;20045;-73
2023/03/22 09:38:16;;;;;;;28.05;26.02;;;12.40;99.90;;;;;;5007701;28;20530;-74
2023/03/22 09:40:52;;;;;;;27.17;25.35;;;12.30;99.90;;;;;;5011953;28;20400;-71
2023/03/22 09:43:19;;;;;;;27.10;25.00;;;12.30;99.90;;;;;;5023962;28;20048;-74
2023/03/22 09:45:49;;;;;;;28.20;26.33;;;12.60;99.90;;;;;;5010267;28;20033;-71
2023/03/22 09:48:19;;;;;;;37.38;33.17;;;12.80;99.90;;;;;;5008705;28;20048;-71
2023/03/22 09:50:50;;;;;;;55.95;39.75;;;12.90;99.90;;;;;;5009610;28;20042;-73
2023/03/22 09:53:17;;;;;;;29.15;27.25;;;13.00;99.90;;;;;;5022214;28;20044;-73
2023/03/22 09:55:49;;;;;;;29.98;27.73;;;13.40;99.90;;;;;;5015334;28;20075;-73
2023/03/22 09:58:33;;;;;;;26.80;24.98;;;13.40;99.90;;;;;;5008878;28;20061;-71
2023/03/22 10:01:20;;;;;;;28.13;26.27;;;13.40;99.90;;;;;;5011800;28;20539;-71
2023/03/22 10:04:06;;;;;;;27.33;25.48;;;13.30;99.90;;;;;;5028717;28;20303;-72
2023/03/22 10:06:33;;;;;;;31.42;29.65;;;13.20;99.90;;;;;;5016398;28;20048;-71
2023/03/22 10:09:18;;;;;;;32.95;30.45;;;13.10;99.90;;;;;;5014630;28;20037;-71
2023/03/22 10:11:53;;;;;;;34.08;31.33;;;12.90;99.90;;;;;;5012947;28;20135;-71
2023/03/22 10:14:40;;;;;;;31.15;29.25;;;12.70;99.90;;;;;;5006544;28;20038;-73
2023/03/22 10:17:17;;;;;;;32.45;30.35;;;12.80;99.90;;;;;;5012639;28;20564;-73
2023/03/22 10:19:55;;;;;;;32.17;29.90;;;13.20;99.90;;;;;;5006604;28;20053;-74
2023/03/22 10:22:28;;;;;;;34.63;32.40;;;13.50;99.90;;;;;;5012939;28;20500;-71
2023/03/22 10:24:57;;;;;;;29.42;27.42;;;13.30;99.90;;;;;;5031532;28;20046;-74
2023/03/22 10:27:27;;;;;;;32.72;30.80;;;13.50;99.90;;;;;;5029280;28;20346;-71
2023/03/22 10:30:20;;;;;;;34.47;32.35;;;13.70;99.90;;;;;;5015512;28;20650;-71
2023/03/22 10:32:54;;;;;;;34.10;31.27;;;13.60;99.90;;;;;;5025939;28;20092;-71
2023/03/22 10:35:24;;;;;;;30.63;28.42;;;13.70;99.90;;;;;;5024001;28;20038;-73
2023/03/22 10:37:53;;;;;;;33.13;31.13;;;13.80;99.90;;;;;;5026378;28;20037;-73
2023/03/22 10:40:30;;;;;;;33.55;31.33;;;13.90;99.90;;;;;;5007438;28;20176;-74
2023/03/22 10:43:06;;;;;;;33.03;30.80;;;14.00;99.90;;;;;;5030002;28;20549;-71
2023/03/22 10:45:34;;;;;;;32.42;30.52;;;14.00;99.90;;;;;;5015182;28;20049;-72
2023/03/22 10:48:10;;;;;;;34.03;31.33;;;13.90;99.90;;;;;;5016912;28;20175;-72
2023/03/22 10:50:40;;;;;;;31.80;29.63;;;14.00;99.90;;;;;;5009843;28;20332;-72
2023/03/22 10:53:26;;;;;;;31.65;29.40;;;14.30;99.90;;;;;;5012981;28;20048;-71
2023/03/22 10:55:53;;;;;;;29.45;27.33;;;14.20;99.90;;;;;;5014630;28;20755;-72
2023/03/22 10:58:21;;;;;;;31.75;29.85;;;14.00;99.90;;;;;;5008702;28;20038;-71
2023/03/22 11:00:53;;;;;;;33.03;30.73;;;13.80;99.90;;;;;;5015017;28;20041;-72
2023/03/22 11:03:30;;;;;;;29.70;27.80;;;13.70;99.90;;;;;;5004913;28;20072;-71
2023/03/22 11:06:05;;;;;;;32.17;30.30;;;13.80;99.90;;;;;;5011482;28;20049;-72
2023/03/22 11:08:53;;;;;;;29.00;27.10;;;14.00;99.90;;;;;;5027275;28;20047;-72
2023/03/22 11:11:37;;;;;;;31.30;29.40;;;13.90;99.90;;;;;;5007435;28;20034;-72
2023/03/22 11:14:18;;;;;;;32.22;30.33;;;13.80;99.90;;;;;;5028937;28;20232;-71
2023/03/22 11:16:54;;;;;;;30.33;28.42;;;13.90;99.90;;;;;;5010385;28;20050;-72
2023/03/22 11:19:36;;;;;;;32.47;30.23;;;14.00;99.90;;;;;;5019624;28;20049;-72
2023/03/22 11:22:27;;;;;;;31.35;29.55;;;14.10;99.90;;;;;;5025965;23;20053;-74
2023/03/22 11:24:55;;;;;;;32.55;30.35;;;14.10;99.90;;;;;;4995003;28;20744;-74
2023/03/22 11:27:23;;;;;;;31.98;29.98;;;14.10;99.90;;;;;;4989647;28;20046;-75
2023/03/22 11:29:57;;;;;;;31.65;29.48;;;13.90;99.90;;;;;;4996215;28;20045;-73
2023/03/22 11:32:35;;;;;;;31.92;29.95;;;14.00;99.90;;;;;;4990482;28;20034;-72
2023/03/22 11:35:19;;;;;;;33.03;30.63;;;14.00;99.90;;;;;;4990998;28;20129;-71
2023/03/22 11:37:49;;;;;;;33.08;30.77;;;14.00;99.90;;;;;;4993485;28;20058;-73
2023/03/22 11:40:34;;;;;;;32.88;30.80;;;13.80;99.90;;;;;;4988876;28;20532;-74
2023/03/22 11:43:18;;;;;;;35.35;33.05;;;13.80;99.90;;;;;;4988019;28;20743;-75
2023/03/22 11:45:48;;;;;;;32.85;30.65;;;13.80;99.90;;;;;;5000364;28;20042;-72
2023/03/22 11:48:19;;;;;;;35.30;33.17;;;13.90;99.90;;;;;;5012508;28;20054;-73
2023/03/22 11:50:47;;;;;;;34.15;31.77;;;14.10;99.90;;;;;;5015144;28;20101;-71
2023/03/22 11:53:21;;;;;;;32.53;30.05;;;14.20;99.90;;;;;;4991754;28;20042;-71
2023/03/22 11:55:50;;;;;;;33.70;31.33;;;14.40;99.90;;;;;;4989363;28;20068;-72
2023/03/22 11:58:26;;;;;;;31.08;29.08;;;14.60;99.90;;;;;;4989027;28;20049;-73
2023/03/22 12:00:58;;;;;;;32.85;30.50;;;14.50;99.90;;;;;;4989500;28;20533;-71
2023/03/22 12:03:30;;;;;;;28.85;26.95;;;14.40;99.90;;;;;;4987103;28;20607;-72
2023/03/22 12:06:04;;;;;;;29.02;27.13;;;14.40;99.90;;;;;;4989907;28;20046;-72
2023/03/22 12:08:43;;;;;;;29.75;27.50;;;14.30;99.90;;;;;;4992657;28;20355;-73
2023/03/22 12:11:16;;;;;;;31.30;28.90;;;14.20;99.90;;;;;;4987574;28;20049;-72
2023/03/22 12:13:53;;;;;;;29.60;27.60;;;14.20;99.90;;;;;;4992293;28;20046;-72
2023/03/22 12:16:25;;;;;;;39.08;35.58;;;14.10;99.90;;;;;;4988564;28;20133;-74
2023/03/22 12:19:12;;;;;;;31.83;29.55;;;14.10;99.90;;;;;;4992454;28;20555;-73
2023/03/22 12:21:41;;;;;;;30.08;27.77;;;14.00;99.90;;;;;;4992427;28;21238;-73
2023/03/22 12:24:26;;;;;;;29.52;27.42;;;14.00;99.90;;;;;;4987736;28;20106;-73
2023/03/22 12:26:57;;;;;;;29.38;27.15;;;13.90;99.90;;;;;;4984529;28;20060;-72
2023/03/22 12:29:25;;;;;;;28.50;26.48;;;14.00;99.90;;;;;;4991228;28;20049;-73
2023/03/22 12:32:02;;;;;;;28.33;26.52;;;14.10;99.90;;;;;;4994020;28;20530;-73
2023/03/22 12:34:39;;;;;;;30.90;28.42;;;14.00;99.90;;;;;;4988294;28;20042;-73
2023/03/22 12:37:10;;;;;;;28.77;26.88;;;14.20;99.90;;;;;;4988853;28;20558;-73
2023/03/22 12:39:44;;;;;;;29.10;27.17;;;14.30;99.90;;;;;;4989686;28;20040;-73
2023/03/22 12:42:22;;;;;;;27.60;25.60;;;14.40;99.90;;;;;;4973472;28;20048;-73
2023/03/22 12:44:53;;;;;;;29.08;26.83;;;14.30;99.90;;;;;;4987185;28;20053;-73
2023/03/22 12:47:41;;;;;;;29.25;26.92;;;14.10;99.90;;;;;;4989863;28;20103;-73
2023/03/22 12:50:24;;;;;;;29.85;27.75;;;14.10;99.90;;;;;;4990119;28;20060;-72
2023/03/22 12:52:53;;;;;;;34.03;31.33;;;14.10;99.90;;;;;;4988510;28;20057;-73
2023/03/22 12:55:29;;;;;;;29.70;27.75;;;14.20;99.90;;;;;;4969903;28;20045;-72
2023/03/22 12:57:57;;;;;;;32.63;30.33;;;14.20;99.90;;;;;;4992008;28;20248;-72
2023/03/22 13:00:40;;;;;;;29.95;27.55;;;14.20;99.90;;;;;;5002804;28;20054;-72
2023/03/22 13:03:16;;;;;;;30.40;28.38;;;14.40;99.90;;;;;;4982868;28;20058;-72
2023/03/22 13:05:45;;;;;;;33.50;30.95;;;14.20;99.90;;;;;;4989242;28;20068;-72